Terminal Aerodrome Forecast
Issued by NWS Grand Forks, ND

Home | Current Version | Previous Version | Graphics & Text | Print | Product List | Glossary On
Versions: 1 2 3 4 5 6 7 8 9 10 11 12 13 14 15 16
799
FTUS43 KFGF 180520
TAFGFK
TAF
KGFK 180520Z 1806/1906 33004KT P6SM SCT220
     FM181500 31008KT P6SM SCT120 BKN200
     FM190100 20006KT P6SM SCT200=

USA.gov is the U.S. government's official web portal to all federal, state and local government web resources and services.